Time,TemperatureF,DewpointF,PressureIn,WindDirection,WindDirectionDegrees,WindSpeedMPH,WindSpeedGustMPH,Humidity,HourlyPrecipIn,Conditions,Clouds,dailyrainin,SoftwareType,DateUTC
2013-02-15 00:00:00,9.9,4.1,30.21,NNW,344,13.1,15.0,76,0.00,,,0.00,CWS Microserver 1.4,2013-02-15 06:00:00,
2013-02-15 00:05:00,9.9,4.1,30.21,NW,322,8.0,14.6,76,0.00,,,0.00,CWS Microserver 1.4,2013-02-15 06:05:00,
2013-02-15 00:15:00,9.7,3.8,30.21,NNW,329,11.6,15.7,76,0.00,,,0.00,CWS Microserver 1.4,2013-02-15 06:15:00,
2013-02-15 00:25:00,9.7,4.2,30.21,WNW,295,9.2,14.1,78,0.00,,,0.00,CWS Microserver 1.4,2013-02-15 06:25:00,
2013-02-15 00:30:00,9.5,4.1,30.21,NW,322,8.5,13.5,78,0.00,,,0.00,CWS Microserver 1.4,2013-02-15 06:30:00,
2013-02-15 00:35:00,9.4,4.2,30.22,NNW,327,7.8,12.0,78,0.00,,,0.00,CWS Microserver 1.4,2013-02-15 06:35:00,
2013-02-15 00:40:00,9.4,4.2,30.22,NW,310,7.0,12.6,78,0.00,,,0.00,CWS Microserver 1.4,2013-02-15 06:40:00,
2013-02-15 00:45:00,9.4,4.2,30.22,NNW,337,8.7,13.1,79,0.00,,,0.00,CWS Microserver 1.4,2013-02-15 06:45:00,
2013-02-15 00:50:00,9.4,4.2,30.22,NNW,344,10.3,13.6,79,0.00,,,0.00,CWS Microserver 1.4,2013-02-15 06:50:00,
2013-02-15 00:55:00,9.4,4.3,30.22,NW,322,7.4,13.6,79,0.00,,,0.00,CWS Microserver 1.4,2013-02-15 06:55:00,
2013-02-15 01:00:00,9.4,4.3,30.22,NNW,336,7.0,15.0,79,0.00,,,0.00,CWS Microserver 1.4,2013-02-15 07:00:00,
2013-02-15 01:10:00,9.2,4.2,30.22,NW,316,9.3,14.1,79,0.00,,,0.00,CWS Microserver 1.4,2013-02-15 07:10:00,
2013-02-15 01:15:00,9.2,4.2,30.22,NW,317,7.4,11.1,79,0.00,,,0.00,CWS Microserver 1.4,2013-02-15 07:15:00,
2013-02-15 01:20:00,9.2,4.2,30.22,NW,321,8.1,12.6,79,0.00,,,0.00,CWS Microserver 1.4,2013-02-15 07:20:00,
2013-02-15 01:25:00,9.2,4.1,30.22,NW,321,10.1,12.7,79,0.00,,,0.00,CWS Microserver 1.4,2013-02-15 07:25:00,
2013-02-15 01:30:00,9.0,4.0,30.22,NW,323,8.7,12.7,79,0.00,,,0.00,CWS Microserver 1.4,2013-02-15 07:30:00,
2013-02-15 01:35:00,9.0,4.0,30.22,NW,311,9.1,12.5,79,0.00,,,0.00,CWS Microserver 1.4,2013-02-15 07:35:00,
2013-02-15 01:40:00,9.0,4.1,30.22,NNW,327,9.5,11.6,79,0.00,,,0.00,CWS Microserver 1.4,2013-02-15 07:40:00,
2013-02-15 01:45:00,9.0,4.0,30.22,NW,326,10.7,11.8,79,0.00,,,0.00,CWS Microserver 1.4,2013-02-15 07:45:00,
2013-02-15 01:50:00,9.0,3.9,30.22,NNW,328,6.1,15.0,79,0.00,,,0.00,CWS Microserver 1.4,2013-02-15 07:50:00,
2013-02-15 01:55:00,9.0,3.9,30.23,NW,314,7.0,15.0,79,0.00,,,0.00,CWS Microserver 1.4,2013-02-15 07:55:00,
2013-02-15 02:00:00,9.0,3.7,30.23,NNW,339,10.4,15.3,78,0.00,,,0.00,CWS Microserver 1.4,2013-02-15 08:00:00,
2013-02-15 02:05:00,9.0,3.6,30.23,NNW,330,10.8,15.3,78,0.00,,,0.00,CWS Microserver 1.4,2013-02-15 08:05:00,
2013-02-15 02:10:00,8.8,3.3,30.23,NNW,332,9.0,13.9,77,0.00,,,0.00,CWS Microserver 1.4,2013-02-15 08:10:00,
2013-02-15 02:15:00,8.8,3.3,30.23,NNW,327,7.8,14.9,77,0.00,,,0.00,CWS Microserver 1.4,2013-02-15 08:15:00,
2013-02-15 02:20:00,8.6,3.0,30.23,NNW,328,7.9,14.9,77,0.00,,,0.00,CWS Microserver 1.4,2013-02-15 08:20:00,
2013-02-15 02:25:00,8.5,2.8,30.23,NNW,332,8.5,11.5,77,0.00,,,0.00,CWS Microserver 1.4,2013-02-15 08:25:00,
2013-02-15 02:30:00,8.3,2.6,30.23,NW,326,7.0,11.9,77,0.00,,,0.00,CWS Microserver 1.4,2013-02-15 08:30:00,
2013-02-15 02:35:00,8.1,2.4,30.23,NNW,331,9.7,11.9,77,0.00,,,0.00,CWS Microserver 1.4,2013-02-15 08:35:00,
2013-02-15 02:40:00,8.3,2.5,30.23,NNW,328,6.4,11.5,76,0.00,,,0.00,CWS Microserver 1.4,2013-02-15 08:40:00,
2013-02-15 02:45:00,8.1,2.0,30.23,NNW,329,11.4,12.7,75,0.00,,,0.00,CWS Microserver 1.4,2013-02-15 08:45:00,
2013-02-15 02:50:00,8.3,2.0,30.23,NNW,337,10.8,13.0,75,0.00,,,0.00,CWS Microserver 1.4,2013-02-15 08:50:00,
2013-02-15 02:55:00,8.1,2.0,30.23,NW,307,7.3,13.0,75,0.00,,,0.00,CWS Microserver 1.4,2013-02-15 08:55:00,
2013-02-15 03:00:00,8.1,2.0,30.23,NW,317,3.3,11.6,75,0.00,,,0.00,CWS Microserver 1.4,2013-02-15 09:00:00,
2013-02-15 03:05:00,7.9,1.9,30.23,WNW,288,3.6,9.5,75,0.00,,,0.00,CWS Microserver 1.4,2013-02-15 09:05:00,
2013-02-15 03:10:00,7.9,1.7,30.23,NW,319,7.4,8.6,75,0.00,,,0.00,CWS Microserver 1.4,2013-02-15 09:10:00,
2013-02-15 03:15:00,8.1,1.8,30.23,NNW,329,4.8,10.6,74,0.00,,,0.00,CWS Microserver 1.4,2013-02-15 09:15:00,
2013-02-15 03:20:00,7.9,1.8,30.23,WNW,283,5.2,10.6,75,0.00,,,0.00,CWS Microserver 1.4,2013-02-15 09:20:00,
2013-02-15 03:30:00,7.6,1.9,30.23,NW,304,3.5,8.6,76,0.00,,,0.00,CWS Microserver 1.4,2013-02-15 09:30:00,
2013-02-15 03:35:00,7.4,1.5,30.23,WNW,290,4.6,9.1,76,0.00,,,0.00,CWS Microserver 1.4,2013-02-15 09:35:00,
2013-02-15 03:40:00,7.4,1.7,30.23,West,280,6.3,9.1,76,0.00,,,0.00,CWS Microserver 1.4,2013-02-15 09:40:00,
2013-02-15 03:45:00,7.4,1.7,30.23,West,275,5.7,8.0,77,0.00,,,0.00,CWS Microserver 1.4,2013-02-15 09:45:00,
2013-02-15 03:50:00,7.4,1.7,30.23,WNW,297,5.1,8.0,77,0.00,,,0.00,CWS Microserver 1.4,2013-02-15 09:50:00,
2013-02-15 03:55:00,7.2,1.6,30.23,WNW,300,4.6,8.0,77,0.00,,,0.00,CWS Microserver 1.4,2013-02-15 09:55:00,
2013-02-15 04:00:00,7.4,1.9,30.23,West,271,7.6,8.1,77,0.00,,,0.00,CWS Microserver 1.4,2013-02-15 10:00:00,
2013-02-15 04:05:00,7.2,1.8,30.23,West,271,4.8,8.1,77,0.00,,,0.00,CWS Microserver 1.4,2013-02-15 10:05:00,
2013-02-15 04:10:00,6.8,1.3,30.23,WNW,283,6.4,7.8,77,0.00,,,0.00,CWS Microserver 1.4,2013-02-15 10:10:00,
2013-02-15 04:15:00,7.0,1.6,30.24,NW,305,4.4,8.9,78,0.00,,,0.00,CWS Microserver 1.4,2013-02-15 10:15:00,
2013-02-15 04:20:00,7.0,1.7,30.24,NW,316,5.7,8.9,78,0.00,,,0.00,CWS Microserver 1.4,2013-02-15 10:20:00,
2013-02-15 04:25:00,7.2,2.1,30.24,NW,306,5.7,10.4,79,0.00,,,0.00,CWS Microserver 1.4,2013-02-15 10:25:00,
2013-02-15 04:30:00,7.4,2.3,30.24,NW,322,7.6,11.4,79,0.00,,,0.00,CWS Microserver 1.4,2013-02-15 10:30:00,
2013-02-15 04:40:00,8.1,3.0,30.24,NW,305,8.0,11.1,79,0.00,,,0.00,CWS Microserver 1.4,2013-02-15 10:40:00,
2013-02-15 04:45:00,8.5,3.5,30.24,NW,326,7.2,11.1,79,0.00,,,0.00,CWS Microserver 1.4,2013-02-15 10:45:00,
2013-02-15 04:50:00,8.8,3.6,30.24,NW,316,7.2,12.4,79,0.00,,,0.00,CWS Microserver 1.4,2013-02-15 10:50:00,
2013-02-15 04:55:00,9.0,3.8,30.24,NW,313,10.9,12.4,78,0.00,,,0.00,CWS Microserver 1.4,2013-02-15 10:55:00,
2013-02-15 05:00:00,9.2,4.0,30.24,NW,306,8.7,12.9,79,0.00,,,0.00,CWS Microserver 1.4,2013-02-15 11:00:00,
2013-02-15 05:05:00,9.2,3.9,30.24,NW,323,7.8,14.1,78,0.00,,,0.00,CWS Microserver 1.4,2013-02-15 11:05:00,
2013-02-15 05:10:00,9.0,3.9,30.24,NW,311,6.5,14.1,79,0.00,,,0.00,CWS Microserver 1.4,2013-02-15 11:10:00,
2013-02-15 05:15:00,9.0,4.1,30.24,NNW,329,9.7,13.1,79,0.00,,,0.00,CWS Microserver 1.4,2013-02-15 11:15:00,
2013-02-15 05:20:00,8.8,4.0,30.25,NW,315,8.0,13.8,80,0.00,,,0.00,CWS Microserver 1.4,2013-02-15 11:20:00,
2013-02-15 05:25:00,8.8,4.0,30.25,NW,314,6.1,13.8,80,0.00,,,0.00,CWS Microserver 1.4,2013-02-15 11:25:00,
2013-02-15 05:30:00,8.8,4.0,30.25,NW,317,11.9,13.1,80,0.00,,,0.00,CWS Microserver 1.4,2013-02-15 11:30:00,
2013-02-15 05:35:00,8.6,3.9,30.25,NW,320,5.6,13.1,80,0.00,,,0.00,CWS Microserver 1.4,2013-02-15 11:35:00,
2013-02-15 05:40:00,8.5,4.0,30.25,NW,320,9.6,12.6,81,0.00,,,0.00,CWS Microserver 1.4,2013-02-15 11:40:00,
2013-02-15 05:45:00,8.5,4.1,30.25,NW,322,8.7,11.6,82,0.00,,,0.00,CWS Microserver 1.4,2013-02-15 11:45:00,
2013-02-15 05:50:00,8.5,4.2,30.25,NW,309,6.8,11.7,82,0.00,,,0.00,CWS Microserver 1.4,2013-02-15 11:50:00,
2013-02-15 05:55:00,8.5,4.2,30.25,NW,322,8.6,12.5,82,0.00,,,0.00,CWS Microserver 1.4,2013-02-15 11:55:00,
2013-02-15 06:00:00,8.5,4.3,30.25,NW,312,6.5,13.0,82,0.00,,,0.00,CWS Microserver 1.4,2013-02-15 12:00:00,
2013-02-15 06:05:00,8.3,3.8,30.25,WNW,299,5.6,13.0,81,0.00,,,0.00,CWS Microserver 1.4,2013-02-15 12:05:00,
2013-02-15 06:10:00,7.7,3.4,30.25,WNW,287,5.6,11.2,82,0.00,,,0.00,CWS Microserver 1.4,2013-02-15 12:10:00,
2013-02-15 06:15:00,7.6,3.3,30.25,WNW,296,5.7,8.7,82,0.00,,,0.00,CWS Microserver 1.4,2013-02-15 12:15:00,
2013-02-15 06:20:00,7.4,3.2,30.25,WNW,296,7.1,9.0,82,0.00,,,0.00,CWS Microserver 1.4,2013-02-15 12:20:00,
2013-02-15 06:25:00,7.2,3.1,30.25,WNW,290,4.6,9.0,82,0.00,,,0.00,CWS Microserver 1.4,2013-02-15 12:25:00,
2013-02-15 06:35:00,7.0,2.9,30.26,NW,306,6.9,10.2,82,0.00,,,0.00,CWS Microserver 1.4,2013-02-15 12:35:00,
2013-02-15 06:40:00,7.2,3.3,30.26,NW,308,8.4,10.0,83,0.00,,,0.00,CWS Microserver 1.4,2013-02-15 12:40:00,
2013-02-15 06:45:00,7.4,3.5,30.26,NW,310,5.2,10.0,83,0.00,,,0.00,CWS Microserver 1.4,2013-02-15 12:45:00,
2013-02-15 06:50:00,7.2,3.2,30.26,NW,313,5.9,9.7,83,0.00,,,0.00,CWS Microserver 1.4,2013-02-15 12:50:00,
2013-02-15 06:55:00,6.8,2.8,30.26,NW,305,4.8,7.5,83,0.00,,,0.00,CWS Microserver 1.4,2013-02-15 12:55:00,
2013-02-15 07:00:00,6.7,2.8,30.26,WNW,294,4.7,7.8,83,0.00,,,0.00,CWS Microserver 1.4,2013-02-15 13:00:00,
2013-02-15 07:05:00,6.7,2.9,30.26,WNW,292,4.4,8.0,83,0.00,,,0.00,CWS Microserver 1.4,2013-02-15 13:05:00,
2013-02-15 07:10:00,6.7,2.9,30.26,WNW,283,6.6,8.0,83,0.00,,,0.00,CWS Microserver 1.4,2013-02-15 13:10:00,
2013-02-15 07:15:00,6.7,2.9,30.26,WNW,290,4.6,8.1,84,0.00,,,0.00,CWS Microserver 1.4,2013-02-15 13:15:00,
2013-02-15 07:20:00,6.7,2.8,30.26,WNW,295,4.2,8.1,83,0.00,,,0.00,CWS Microserver 1.4,2013-02-15 13:20:00,
2013-02-15 07:25:00,6.7,2.9,30.26,NW,307,5.0,7.2,84,0.00,,,0.00,CWS Microserver 1.4,2013-02-15 13:25:00,
2013-02-15 07:30:00,6.7,3.0,30.26,WNW,298,5.3,7.5,84,0.00,,,0.00,CWS Microserver 1.4,2013-02-15 13:30:00,
2013-02-15 07:35:00,6.7,3.0,30.26,NW,306,5.7,7.8,84,0.00,,,0.00,CWS Microserver 1.4,2013-02-15 13:35:00,
2013-02-15 07:40:00,6.8,3.1,30.26,WNW,299,4.2,7.8,84,0.00,,,0.00,CWS Microserver 1.4,2013-02-15 13:40:00,
2013-02-15 07:45:00,7.2,3.4,30.26,NW,310,4.6,7.6,83,0.00,,,0.00,CWS Microserver 1.4,2013-02-15 13:45:00,
2013-02-15 07:50:00,7.4,3.5,30.26,WNW,301,3.8,7.5,83,0.00,,,0.00,CWS Microserver 1.4,2013-02-15 13:50:00,
2013-02-15 07:55:00,7.6,3.6,30.26,NW,308,5.4,8.6,83,0.00,,,0.00,CWS Microserver 1.4,2013-02-15 13:55:00,
2013-02-15 08:00:00,7.7,3.6,30.27,WNW,286,6.1,8.6,82,0.00,,,0.00,CWS Microserver 1.4,2013-02-15 14:00:00,
2013-02-15 08:05:00,7.9,3.7,30.27,NW,304,5.8,9.1,82,0.00,,,0.00,CWS Microserver 1.4,2013-02-15 14:05:00,
2013-02-15 08:10:00,8.1,3.8,30.27,WNW,299,7.2,9.8,82,0.00,,,0.00,CWS Microserver 1.4,2013-02-15 14:10:00,
2013-02-15 08:15:00,8.3,3.9,30.27,NW,305,6.9,10.4,81,0.00,,,0.00,CWS Microserver 1.4,2013-02-15 14:15:00,
2013-02-15 08:20:00,8.5,4.0,30.27,NW,319,9.3,10.8,81,0.00,,,0.00,CWS Microserver 1.4,2013-02-15 14:20:00,
2013-02-15 08:25:00,8.8,4.4,30.28,NW,316,6.0,10.8,81,0.00,,,0.00,CWS Microserver 1.4,2013-02-15 14:25:00,
2013-02-15 08:30:00,9.0,4.4,30.28,NW,319,7.2,12.8,81,0.00,,,0.00,CWS Microserver 1.4,2013-02-15 14:30:00,
2013-02-15 08:35:00,9.5,4.7,30.28,NNW,337,8.6,12.8,80,0.00,,,0.00,CWS Microserver 1.4,2013-02-15 14:35:00,
2013-02-15 08:40:00,9.5,4.4,30.28,NNW,335,8.9,14.0,79,0.00,,,0.00,CWS Microserver 1.4,2013-02-15 14:40:00,
2013-02-15 08:45:00,9.7,4.6,30.28,NW,319,8.8,14.0,79,0.00,,,0.00,CWS Microserver 1.4,2013-02-15 14:45:00,
2013-02-15 08:50:00,10.1,4.8,30.28,NW,322,9.5,13.9,78,0.00,,,0.00,CWS Microserver 1.4,2013-02-15 14:50:00,
2013-02-15 08:55:00,10.1,4.6,30.28,NW,310,8.4,12.1,77,0.00,,,0.00,CWS Microserver 1.4,2013-02-15 14:55:00,
2013-02-15 09:00:00,10.3,5.1,30.28,NNW,336,11.3,12.1,79,0.00,,,0.00,CWS Microserver 1.4,2013-02-15 15:00:00,
2013-02-15 09:05:00,10.4,4.9,30.28,NNW,340,12.2,13.0,78,0.00,,,0.00,CWS Microserver 1.4,2013-02-15 15:05:00,
2013-02-15 09:10:00,10.4,5.0,30.29,NW,326,11.4,13.7,78,0.00,,,0.00,CWS Microserver 1.4,2013-02-15 15:10:00,
2013-02-15 09:15:00,10.4,5.0,30.29,NNW,342,10.4,13.7,78,0.00,,,0.00,CWS Microserver 1.4,2013-02-15 15:15:00,
2013-02-15 09:20:00,11.0,5.6,30.29,NNW,343,4.5,12.8,78,0.00,,,0.00,CWS Microserver 1.4,2013-02-15 15:20:00,
2013-02-15 09:25:00,11.3,5.5,30.29,NW,311,11.2,12.6,76,0.00,,,0.00,CWS Microserver 1.4,2013-02-15 15:25:00,
2013-02-15 09:30:00,11.2,5.7,30.29,NW,325,10.1,13.5,78,0.00,,,0.00,CWS Microserver 1.4,2013-02-15 15:30:00,
2013-02-15 09:35:00,11.3,5.6,30.29,NW,314,7.9,13.5,77,0.00,,,0.00,CWS Microserver 1.4,2013-02-15 15:35:00,
2013-02-15 09:40:00,11.5,5.9,30.29,NW,316,10.3,13.3,77,0.00,,,0.00,CWS Microserver 1.4,2013-02-15 15:40:00,
2013-02-15 09:45:00,11.3,5.8,30.29,North,350,10.0,15.1,78,0.00,,,0.00,CWS Microserver 1.4,2013-02-15 15:45:00,
2013-02-15 09:50:00,11.7,6.0,30.29,NNW,339,10.2,15.1,77,0.00,,,0.00,CWS Microserver 1.4,2013-02-15 15:50:00,
2013-02-15 09:55:00,12.1,6.3,30.30,NNW,328,2.1,12.7,77,0.00,,,0.00,CWS Microserver 1.4,2013-02-15 15:55:00,
2013-02-15 10:00:00,12.2,6.1,30.29,NNW,333,9.3,12.9,76,0.00,,,0.00,CWS Microserver 1.4,2013-02-15 16:00:00,
2013-02-15 10:05:00,12.6,6.5,30.30,NW,314,7.6,13.6,76,0.00,,,0.00,CWS Microserver 1.4,2013-02-15 16:05:00,
2013-02-15 10:10:00,12.6,6.1,30.30,NW,316,8.5,13.6,74,0.00,,,0.00,CWS Microserver 1.4,2013-02-15 16:10:00,
2013-02-15 10:15:00,12.6,5.9,30.30,NW,315,10.7,15.6,74,0.00,,,0.00,CWS Microserver 1.4,2013-02-15 16:15:00,
2013-02-15 10:20:00,12.6,6.2,30.29,NNW,336,10.2,15.6,74,0.00,,,0.00,CWS Microserver 1.4,2013-02-15 16:20:00,
2013-02-15 10:25:00,12.4,5.9,30.29,North,7,7.1,15.1,74,0.00,,,0.00,CWS Microserver 1.4,2013-02-15 16:25:00,
2013-02-15 10:30:00,12.6,5.4,30.29,North,354,10.7,15.7,72,0.00,,,0.00,CWS Microserver 1.4,2013-02-15 16:30:00,
2013-02-15 10:35:00,13.0,5.7,30.29,NW,313,7.3,15.7,72,0.00,,,0.00,CWS Microserver 1.4,2013-02-15 16:35:00,
2013-02-15 10:40:00,13.1,6.0,30.29,NW,315,9.5,14.0,72,0.00,,,0.00,CWS Microserver 1.4,2013-02-15 16:40:00,
2013-02-15 10:45:00,13.1,6.3,30.29,NW,321,7.8,15.2,73,0.00,,,0.00,CWS Microserver 1.4,2013-02-15 16:45:00,
2013-02-15 10:50:00,13.5,6.7,30.29,NNW,339,8.5,15.2,73,0.00,,,0.00,CWS Microserver 1.4,2013-02-15 16:50:00,
2013-02-15 10:55:00,13.3,6.3,30.29,NW,314,9.2,14.3,73,0.00,,,0.00,CWS Microserver 1.4,2013-02-15 16:55:00,
2013-02-15 11:00:00,14.0,6.7,30.29,NW,318,9.6,14.3,72,0.00,,,0.00,CWS Microserver 1.4,2013-02-15 17:00:00,
2013-02-15 11:05:00,13.9,6.6,30.29,NW,320,9.0,14.1,72,0.00,,,0.00,CWS Microserver 1.4,2013-02-15 17:05:00,
2013-02-15 11:10:00,14.0,6.9,30.30,NW,322,10.5,13.1,73,0.00,,,0.00,CWS Microserver 1.4,2013-02-15 17:10:00,
2013-02-15 11:15:00,14.4,7.6,30.30,NNW,341,8.2,13.9,74,0.00,,,0.00,CWS Microserver 1.4,2013-02-15 17:15:00,
2013-02-15 11:20:00,14.0,7.1,30.30,NW,316,2.1,13.9,73,0.00,,,0.00,CWS Microserver 1.4,2013-02-15 17:20:00,
2013-02-15 11:25:00,14.2,6.5,30.30,NW,320,10.2,14.0,71,0.00,,,0.00,CWS Microserver 1.4,2013-02-15 17:25:00,
2013-02-15 11:30:00,14.2,6.5,30.30,NW,322,4.9,14.0,70,0.00,,,0.00,CWS Microserver 1.4,2013-02-15 17:30:00,
2013-02-15 11:35:00,13.7,6.2,30.30,North,11,12.2,17.4,71,0.00,,,0.00,CWS Microserver 1.4,2013-02-15 17:35:00,
2013-02-15 11:40:00,14.0,6.5,30.30,NNW,334,11.9,17.4,71,0.00,,,0.00,CWS Microserver 1.4,2013-02-15 17:40:00,
2013-02-15 11:45:00,13.9,6.4,30.30,North,358,10.2,16.7,71,0.00,,,0.00,CWS Microserver 1.4,2013-02-15 17:45:00,
2013-02-15 11:50:00,14.2,7.8,30.30,NNW,343,6.6,15.7,75,0.00,,,0.00,CWS Microserver 1.4,2013-02-15 17:50:00,
2013-02-15 11:55:00,14.2,6.8,30.29,North,8,10.7,15.4,71,0.00,,,0.00,CWS Microserver 1.4,2013-02-15 17:55:00,
2013-02-15 12:00:00,14.4,7.2,30.29,NW,312,8.7,15.1,72,0.00,,,0.00,CWS Microserver 1.4,2013-02-15 18:00:00,
2013-02-15 12:05:00,14.4,7.0,30.29,NNW,345,8.0,14.6,71,0.00,,,0.00,CWS Microserver 1.4,2013-02-15 18:05:00,
2013-02-15 12:10:00,14.6,6.8,30.29,North,7,8.1,14.6,70,0.00,,,0.00,CWS Microserver 1.4,2013-02-15 18:10:00,
2013-02-15 12:15:00,14.4,7.1,30.29,NNW,333,8.0,17.7,72,0.00,,,0.00,CWS Microserver 1.4,2013-02-15 18:15:00,
2013-02-15 12:20:00,14.4,6.7,30.29,NNW,331,7.4,17.7,70,0.00,,,0.00,CWS Microserver 1.4,2013-02-15 18:20:00,
2013-02-15 12:30:00,15.1,8.0,30.29,NNW,328,14.1,14.6,72,0.00,,,0.00,CWS Microserver 1.4,2013-02-15 18:30:00,
2013-02-15 12:35:00,14.6,7.2,30.29,NNW,342,8.3,16.5,72,0.00,,,0.00,CWS Microserver 1.4,2013-02-15 18:35:00,
2013-02-15 12:40:00,15.1,7.4,30.29,NW,317,12.1,16.5,71,0.00,,,0.00,CWS Microserver 1.4,2013-02-15 18:40:00,
2013-02-15 12:45:00,15.3,8.4,30.29,NW,318,10.0,15.4,73,0.00,,,0.00,CWS Microserver 1.4,2013-02-15 18:45:00,
2013-02-15 12:50:00,15.5,7.8,30.29,NW,323,13.8,15.7,71,0.00,,,0.00,CWS Microserver 1.4,2013-02-15 18:50:00,
2013-02-15 13:00:00,15.1,6.9,30.29,NW,323,8.5,17.8,69,0.00,,,0.00,CWS Microserver 1.4,2013-02-15 19:00:00,
2013-02-15 13:05:00,15.5,7.1,30.29,NNW,335,9.5,17.8,68,0.00,,,0.00,CWS Microserver 1.4,2013-02-15 19:05:00,
2013-02-15 13:10:00,15.3,7.9,30.29,NW,321,6.8,15.0,72,0.00,,,0.00,CWS Microserver 1.4,2013-02-15 19:10:00,
2013-02-15 13:15:00,15.5,7.6,30.29,NNW,331,5.4,15.2,70,0.00,,,0.00,CWS Microserver 1.4,2013-02-15 19:15:00,
2013-02-15 13:20:00,15.1,7.2,30.29,NW,322,13.2,16.4,70,0.00,,,0.00,CWS Microserver 1.4,2013-02-15 19:20:00,
2013-02-15 13:25:00,15.3,7.6,30.29,NW,308,11.5,17.0,71,0.00,,,0.00,CWS Microserver 1.4,2013-02-15 19:25:00,
2013-02-15 13:30:00,15.8,8.1,30.29,NW,312,8.0,17.0,71,0.00,,,0.00,CWS Microserver 1.4,2013-02-15 19:30:00,
2013-02-15 13:35:00,15.3,7.5,30.29,NNW,329,8.9,16.0,70,0.00,,,0.00,CWS Microserver 1.4,2013-02-15 19:35:00,
2013-02-15 13:40:00,15.7,7.9,30.29,NW,321,10.7,16.0,70,0.00,,,0.00,CWS Microserver 1.4,2013-02-15 19:40:00,
2013-02-15 13:45:00,16.2,8.8,30.29,NW,318,8.1,16.2,72,0.00,,,0.00,CWS Microserver 1.4,2013-02-15 19:45:00,
2013-02-15 13:50:00,16.2,7.6,30.28,NNW,338,12.7,17.7,68,0.00,,,0.00,CWS Microserver 1.4,2013-02-15 19:50:00,
2013-02-15 13:55:00,15.8,7.6,30.29,NW,316,5.9,18.0,69,0.00,,,0.00,CWS Microserver 1.4,2013-02-15 19:55:00,
2013-02-15 14:00:00,16.0,7.7,30.28,NNW,346,13.6,18.1,69,0.00,,,0.00,CWS Microserver 1.4,2013-02-15 20:00:00,
2013-02-15 14:05:00,15.8,7.9,30.28,NNW,334,13.6,18.1,70,0.00,,,0.00,CWS Microserver 1.4,2013-02-15 20:05:00,
2013-02-15 14:10:00,16.0,7.9,30.29,NNW,334,11.4,17.0,69,0.00,,,0.00,CWS Microserver 1.4,2013-02-15 20:10:00,
2013-02-15 14:15:00,16.4,7.3,30.29,NW,320,13.8,18.6,66,0.00,,,0.00,CWS Microserver 1.4,2013-02-15 20:15:00,
2013-02-15 14:20:00,16.0,7.0,30.29,NNW,336,9.5,18.6,67,0.00,,,0.00,CWS Microserver 1.4,2013-02-15 20:20:00,
2013-02-15 14:25:00,16.0,8.1,30.29,NNW,333,11.4,18.4,70,0.00,,,0.00,CWS Microserver 1.4,2013-02-15 20:25:00,
2013-02-15 14:30:00,16.4,8.4,30.29,NW,324,9.9,17.6,70,0.00,,,0.00,CWS Microserver 1.4,2013-02-15 20:30:00,
2013-02-15 14:40:00,16.2,8.2,30.28,NNW,344,9.0,17.5,70,0.00,,,0.00,CWS Microserver 1.4,2013-02-15 20:40:00,
2013-02-15 14:50:00,16.2,8.3,30.29,NW,324,10.1,19.7,70,0.00,,,0.00,CWS Microserver 1.4,2013-02-15 20:50:00,
2013-02-15 14:55:00,16.4,7.7,30.28,NNW,342,8.3,19.7,67,0.00,,,0.00,CWS Microserver 1.4,2013-02-15 20:55:00,
2013-02-15 15:00:00,16.6,8.0,30.28,NNW,329,9.7,18.0,68,0.00,,,0.00,CWS Microserver 1.4,2013-02-15 21:00:00,
2013-02-15 15:05:00,16.4,8.0,30.28,NW,318,11.0,17.3,68,0.00,,,0.00,CWS Microserver 1.4,2013-02-15 21:05:00,
2013-02-15 15:10:00,16.7,8.2,30.29,North,350,8.8,17.3,68,0.00,,,0.00,CWS Microserver 1.4,2013-02-15 21:10:00,
2013-02-15 15:15:00,16.0,8.0,30.29,NNW,347,16.1,16.8,70,0.00,,,0.00,CWS Microserver 1.4,2013-02-15 21:15:00,
2013-02-15 15:20:00,16.4,9.0,30.29,NNW,331,11.9,18.1,72,0.00,,,0.00,CWS Microserver 1.4,2013-02-15 21:20:00,
2013-02-15 15:25:00,16.6,8.5,30.29,NNW,330,12.2,18.1,69,0.00,,,0.00,CWS Microserver 1.4,2013-02-15 21:25:00,
2013-02-15 15:30:00,16.4,8.2,30.29,NNW,342,14.8,17.7,69,0.00,,,0.00,CWS Microserver 1.4,2013-02-15 21:30:00,
2013-02-15 15:35:00,16.0,7.9,30.29,NNW,330,12.0,17.8,69,0.00,,,0.00,CWS Microserver 1.4,2013-02-15 21:35:00,
2013-02-15 15:40:00,16.6,8.1,30.29,North,350,13.2,17.8,68,0.00,,,0.00,CWS Microserver 1.4,2013-02-15 21:40:00,
2013-02-15 15:45:00,16.2,8.6,30.29,NNW,327,11.2,17.7,71,0.00,,,0.00,CWS Microserver 1.4,2013-02-15 21:45:00,
2013-02-15 15:50:00,16.4,8.5,30.29,NNW,328,11.6,17.3,70,0.00,,,0.00,CWS Microserver 1.4,2013-02-15 21:50:00,
2013-02-15 15:55:00,16.2,8.5,30.29,NW,310,7.9,17.4,71,0.00,,,0.00,CWS Microserver 1.4,2013-02-15 21:55:00,
2013-02-15 16:00:00,16.2,8.4,30.29,NW,321,9.8,18.6,70,0.00,,,0.00,CWS Microserver 1.4,2013-02-15 22:00:00,
2013-02-15 16:05:00,16.2,8.1,30.29,NNW,336,13.1,18.6,69,0.00,,,0.00,CWS Microserver 1.4,2013-02-15 22:05:00,
2013-02-15 16:10:00,15.8,8.1,30.29,NNW,333,8.5,18.1,71,0.00,,,0.00,CWS Microserver 1.4,2013-02-15 22:10:00,
2013-02-15 16:15:00,16.0,8.0,30.29,NNW,342,11.3,18.1,70,0.00,,,0.00,CWS Microserver 1.4,2013-02-15 22:15:00,
2013-02-15 16:20:00,16.0,8.6,30.29,NW,310,11.9,17.1,72,0.00,,,0.00,CWS Microserver 1.4,2013-02-15 22:20:00,
2013-02-15 16:25:00,15.8,7.6,30.29,North,353,14.6,18.5,69,0.00,,,0.00,CWS Microserver 1.4,2013-02-15 22:25:00,
2013-02-15 16:30:00,15.7,8.3,30.29,NNW,339,6.9,18.5,71,0.00,,,0.00,CWS Microserver 1.4,2013-02-15 22:30:00,
2013-02-15 16:35:00,16.0,8.1,30.29,NNW,330,7.4,18.2,70,0.00,,,0.00,CWS Microserver 1.4,2013-02-15 22:35:00,
2013-02-15 16:40:00,15.8,7.7,30.29,NNW,341,17.9,17.9,69,0.00,,,0.00,CWS Microserver 1.4,2013-02-15 22:40:00,
2013-02-15 16:45:00,15.7,8.7,30.30,NNW,330,12.0,18.0,73,0.00,,,0.00,CWS Microserver 1.4,2013-02-15 22:45:00,
2013-02-15 16:50:00,15.3,8.1,30.30,NW,319,12.3,18.0,72,0.00,,,0.00,CWS Microserver 1.4,2013-02-15 22:50:00,
2013-02-15 16:55:00,15.3,8.3,30.30,NW,324,6.5,17.8,73,0.00,,,0.00,CWS Microserver 1.4,2013-02-15 22:55:00,
2013-02-15 17:00:00,15.5,8.0,30.30,NW,318,14.1,17.6,71,0.00,,,0.00,CWS Microserver 1.4,2013-02-15 23:00:00,
2013-02-15 17:05:00,15.1,7.6,30.30,NNW,328,13.8,16.5,71,0.00,,,0.00,CWS Microserver 1.4,2013-02-15 23:05:00,
2013-02-15 17:10:00,14.8,7.2,30.30,NNW,329,12.6,16.5,71,0.00,,,0.00,CWS Microserver 1.4,2013-02-15 23:10:00,
2013-02-15 17:15:00,14.8,7.9,30.30,NW,319,7.1,15.4,73,0.00,,,0.00,CWS Microserver 1.4,2013-02-15 23:15:00,
2013-02-15 17:20:00,14.8,7.6,30.30,NW,318,6.0,13.1,72,0.00,,,0.00,CWS Microserver 1.4,2013-02-15 23:20:00,
2013-02-15 17:25:00,14.6,8.0,30.30,NW,320,5.7,13.0,74,0.00,,,0.00,CWS Microserver 1.4,2013-02-15 23:25:00,
2013-02-15 17:30:00,14.4,7.5,30.30,NNW,331,6.8,14.3,73,0.00,,,0.00,CWS Microserver 1.4,2013-02-15 23:30:00,
2013-02-15 17:35:00,14.4,7.4,30.30,NNW,327,8.5,14.3,73,0.00,,,0.00,CWS Microserver 1.4,2013-02-15 23:35:00,
2013-02-15 17:40:00,14.2,7.4,30.30,NW,321,8.8,15.1,74,0.00,,,0.00,CWS Microserver 1.4,2013-02-15 23:40:00,
2013-02-15 17:45:00,14.0,7.5,30.29,NNW,329,11.7,15.1,74,0.00,,,0.00,CWS Microserver 1.4,2013-02-15 23:45:00,
2013-02-15 17:50:00,13.9,7.6,30.29,NNW,328,7.1,13.4,75,0.00,,,0.00,CWS Microserver 1.4,2013-02-15 23:50:00,
2013-02-15 17:55:00,13.7,7.5,30.29,NW,325,10.6,13.4,76,0.00,,,0.00,CWS Microserver 1.4,2013-02-15 23:55:00,
2013-02-15 18:00:00,13.5,7.4,30.30,NW,321,9.3,12.2,76,0.00,,,0.00,CWS Microserver 1.4,2013-02-16 00:00:00,
2013-02-15 18:05:00,13.5,7.4,30.29,NNW,336,6.5,13.2,76,0.00,,,0.00,CWS Microserver 1.4,2013-02-16 00:05:00,
2013-02-15 18:10:00,13.3,7.4,30.30,NW,325,7.1,13.2,77,0.00,,,0.00,CWS Microserver 1.4,2013-02-16 00:10:00,
2013-02-15 18:15:00,13.1,7.6,30.30,NW,313,5.8,11.1,78,0.00,,,0.00,CWS Microserver 1.4,2013-02-16 00:15:00,
2013-02-15 18:20:00,13.1,7.5,30.30,NW,314,7.0,12.0,77,0.00,,,0.00,CWS Microserver 1.4,2013-02-16 00:20:00,
2013-02-15 18:25:00,13.1,7.3,30.30,NW,314,8.2,12.3,77,0.00,,,0.00,CWS Microserver 1.4,2013-02-16 00:25:00,
2013-02-15 18:35:00,13.0,7.1,30.30,WNW,298,8.4,14.0,76,0.00,,,0.00,CWS Microserver 1.4,2013-02-16 00:35:00,
2013-02-15 18:40:00,13.0,7.2,30.30,WNW,303,8.5,14.0,77,0.00,,,0.00,CWS Microserver 1.4,2013-02-16 00:40:00,
2013-02-15 18:45:00,13.0,7.3,30.30,NW,318,5.2,12.5,77,0.00,,,0.00,CWS Microserver 1.4,2013-02-16 00:45:00,
2013-02-15 18:50:00,12.8,7.2,30.30,NW,309,6.4,12.5,78,0.00,,,0.00,CWS Microserver 1.4,2013-02-16 00:50:00,
2013-02-15 18:55:00,12.8,7.2,30.30,NW,313,8.0,10.6,77,0.00,,,0.00,CWS Microserver 1.4,2013-02-16 00:55:00,
2013-02-15 19:00:00,12.6,7.3,30.30,WNW,303,5.7,10.6,78,0.00,,,0.00,CWS Microserver 1.4,2013-02-16 01:00:00,
2013-02-15 19:05:00,12.4,7.0,30.30,WNW,301,8.4,12.3,78,0.00,,,0.00,CWS Microserver 1.4,2013-02-16 01:05:00,
2013-02-15 19:10:00,12.4,7.0,30.30,WNW,283,5.7,12.3,78,0.00,,,0.00,CWS Microserver 1.4,2013-02-16 01:10:00,
2013-02-15 19:15:00,12.2,6.9,30.30,WNW,295,7.0,10.2,78,0.00,,,0.00,CWS Microserver 1.4,2013-02-16 01:15:00,
2013-02-15 19:20:00,12.1,7.0,30.29,WNW,300,5.7,9.8,79,0.00,,,0.00,CWS Microserver 1.4,2013-02-16 01:20:00,
2013-02-15 19:25:00,11.9,6.8,30.29,WNW,297,4.5,9.8,79,0.00,,,0.00,CWS Microserver 1.4,2013-02-16 01:25:00,
2013-02-15 19:30:00,11.9,6.8,30.29,North,352,2.6,9.6,79,0.00,,,0.00,CWS Microserver 1.4,2013-02-16 01:30:00,
2013-02-15 19:35:00,11.7,6.8,30.29,NW,307,4.6,9.5,80,0.00,,,0.00,CWS Microserver 1.4,2013-02-16 01:35:00,
2013-02-15 19:40:00,11.3,6.5,30.29,WNW,303,4.4,8.1,80,0.00,,,0.00,CWS Microserver 1.4,2013-02-16 01:40:00,
2013-02-15 19:45:00,11.3,6.5,30.29,WNW,297,6.2,7.8,80,0.00,,,0.00,CWS Microserver 1.4,2013-02-16 01:45:00,
2013-02-15 19:50:00,11.3,6.5,30.29,WNW,283,6.9,7.8,80,0.00,,,0.00,CWS Microserver 1.4,2013-02-16 01:50:00,
2013-02-15 19:55:00,11.3,6.3,30.29,WNW,289,6.3,8.0,80,0.00,,,0.00,CWS Microserver 1.4,2013-02-16 01:55:00,
2013-02-15 20:00:00,11.3,6.2,30.29,WNW,293,5.1,9.4,79,0.00,,,0.00,CWS Microserver 1.4,2013-02-16 02:00:00,
2013-02-15 20:05:00,11.3,6.2,30.29,WNW,299,5.5,9.4,79,0.00,,,0.00,CWS Microserver 1.4,2013-02-16 02:05:00,
2013-02-15 20:10:00,11.3,6.2,30.29,WNW,292,5.8,8.9,79,0.00,,,0.00,CWS Microserver 1.4,2013-02-16 02:10:00,
2013-02-15 20:15:00,11.3,6.3,30.29,WNW,283,6.3,9.1,79,0.00,,,0.00,CWS Microserver 1.4,2013-02-16 02:15:00,
2013-02-15 20:20:00,11.2,6.2,30.29,WNW,283,5.5,9.2,79,0.00,,,0.00,CWS Microserver 1.4,2013-02-16 02:20:00,
2013-02-15 20:25:00,11.2,6.3,30.29,WNW,286,6.7,10.1,80,0.00,,,0.00,CWS Microserver 1.4,2013-02-16 02:25:00,
2013-02-15 20:30:00,11.0,6.1,30.29,WNW,283,7.3,10.1,80,0.00,,,0.00,CWS Microserver 1.4,2013-02-16 02:30:00,
2013-02-15 20:35:00,10.8,6.0,30.29,West,278,6.8,9.3,80,0.00,,,0.00,CWS Microserver 1.4,2013-02-16 02:35:00,
2013-02-15 20:40:00,10.8,6.1,30.29,WNW,289,7.7,9.7,81,0.00,,,0.00,CWS Microserver 1.4,2013-02-16 02:40:00,
2013-02-15 20:45:00,10.8,6.2,30.29,West,276,8.0,9.7,81,0.00,,,0.00,CWS Microserver 1.4,2013-02-16 02:45:00,
2013-02-15 20:50:00,10.8,6.2,30.29,WNW,289,5.5,9.9,81,0.00,,,0.00,CWS Microserver 1.4,2013-02-16 02:50:00,
2013-02-15 21:00:00,10.6,6.0,30.29,West,279,6.5,9.7,81,0.00,,,0.00,CWS Microserver 1.4,2013-02-16 03:00:00,
2013-02-15 21:05:00,10.4,5.8,30.29,West,276,7.7,8.7,81,0.00,,,0.00,CWS Microserver 1.4,2013-02-16 03:05:00,
2013-02-15 21:10:00,10.3,5.7,30.29,West,279,7.6,8.2,81,0.00,,,0.00,CWS Microserver 1.4,2013-02-16 03:10:00,
2013-02-15 21:15:00,10.3,5.7,30.29,West,276,6.5,8.0,81,0.00,,,0.00,CWS Microserver 1.4,2013-02-16 03:15:00,
2013-02-15 21:20:00,10.3,5.7,30.29,West,273,8.0,8.2,81,0.00,,,0.00,CWS Microserver 1.4,2013-02-16 03:20:00,
2013-02-15 21:25:00,10.1,5.5,30.29,West,265,7.5,8.3,81,0.00,,,0.00,CWS Microserver 1.4,2013-02-16 03:25:00,
2013-02-15 21:30:00,10.1,5.5,30.28,West,267,7.2,8.5,81,0.00,,,0.00,CWS Microserver 1.4,2013-02-16 03:30:00,
2013-02-15 21:35:00,10.1,5.4,30.29,West,277,7.4,8.7,80,0.00,,,0.00,CWS Microserver 1.4,2013-02-16 03:35:00,
2013-02-15 21:40:00,9.9,5.2,30.29,West,278,7.6,9.1,80,0.00,,,0.00,CWS Microserver 1.4,2013-02-16 03:40:00,
2013-02-15 21:45:00,9.7,5.2,30.29,West,280,8.6,9.1,81,0.00,,,0.00,CWS Microserver 1.4,2013-02-16 03:45:00,
2013-02-15 21:50:00,10.3,6.0,30.29,West,281,6.8,10.5,82,0.00,,,0.00,CWS Microserver 1.4,2013-02-16 03:50:00,
2013-02-15 21:55:00,10.8,6.3,30.29,West,270,7.7,10.9,81,0.00,,,0.00,CWS Microserver 1.4,2013-02-16 03:55:00,
2013-02-15 22:00:00,11.2,6.3,30.28,West,280,9.2,11.3,80,0.00,,,0.00,CWS Microserver 1.4,2013-02-16 04:00:00,
2013-02-15 22:05:00,11.2,6.3,30.28,West,278,9.8,13.0,80,0.00,,,0.00,CWS Microserver 1.4,2013-02-16 04:05:00,
2013-02-15 22:10:00,11.2,6.3,30.28,WNW,300,9.9,13.0,80,0.00,,,0.00,CWS Microserver 1.4,2013-02-16 04:10:00,
2013-02-15 22:15:00,11.3,6.4,30.28,NW,307,7.1,13.3,80,0.00,,,0.00,CWS Microserver 1.4,2013-02-16 04:15:00,
2013-02-15 22:20:00,11.3,6.4,30.28,WNW,300,8.0,13.3,80,0.00,,,0.00,CWS Microserver 1.4,2013-02-16 04:20:00,
2013-02-15 22:25:00,11.3,6.5,30.28,WNW,300,8.9,11.1,80,0.00,,,0.00,CWS Microserver 1.4,2013-02-16 04:25:00,
2013-02-15 22:30:00,11.3,6.4,30.28,WNW,289,7.0,9.7,80,0.00,,,0.00,CWS Microserver 1.4,2013-02-16 04:30:00,
2013-02-15 22:35:00,11.2,6.3,30.27,West,271,2.7,11.8,80,0.00,,,0.00,CWS Microserver 1.4,2013-02-16 04:35:00,
2013-02-15 22:40:00,11.0,6.2,30.27,NW,309,4.9,11.8,80,0.00,,,0.00,CWS Microserver 1.4,2013-02-16 04:40:00,
2013-02-15 22:45:00,10.8,6.1,30.27,NW,308,4.5,8.9,81,0.00,,,0.00,CWS Microserver 1.4,2013-02-16 04:45:00,
2013-02-15 22:50:00,10.8,6.0,30.27,WNW,286,7.0,8.8,80,0.00,,,0.00,CWS Microserver 1.4,2013-02-16 04:50:00,
2013-02-15 22:55:00,10.4,5.8,30.27,WNW,298,5.8,8.6,81,0.00,,,0.00,CWS Microserver 1.4,2013-02-16 04:55:00,
2013-02-15 23:05:00,9.9,5.5,30.27,WNW,287,5.3,8.3,81,0.00,,,0.00,CWS Microserver 1.4,2013-02-16 05:05:00,
2013-02-15 23:10:00,9.9,5.5,30.27,NW,305,4.2,8.3,82,0.00,,,0.00,CWS Microserver 1.4,2013-02-16 05:10:00,
2013-02-15 23:15:00,9.9,5.5,30.27,NW,316,6.5,7.8,82,0.00,,,0.00,CWS Microserver 1.4,2013-02-16 05:15:00,
2013-02-15 23:20:00,10.1,5.7,30.26,WNW,289,5.3,8.7,82,0.00,,,0.00,CWS Microserver 1.4,2013-02-16 05:20:00,
2013-02-15 23:25:00,10.1,5.9,30.26,WNW,284,6.3,8.7,82,0.00,,,0.00,CWS Microserver 1.4,2013-02-16 05:25:00,
2013-02-15 23:35:00,10.4,6.1,30.26,WNW,290,5.6,9.0,82,0.00,,,0.00,CWS Microserver 1.4,2013-02-16 05:35:00,
2013-02-15 23:40:00,10.6,6.3,30.26,NW,325,5.8,9.0,82,0.00,,,0.00,CWS Microserver 1.4,2013-02-16 05:40:00,
2013-02-15 23:45:00,10.6,6.1,30.26,WNW,300,5.5,8.8,81,0.00,,,0.00,CWS Microserver 1.4,2013-02-16 05:45:00,
2013-02-15 23:50:00,10.4,6.0,30.26,WNW,302,5.5,9.9,81,0.00,,,0.00,CWS Microserver 1.4,2013-02-16 05:50:00,
2013-02-15 23:55:00,10.6,6.2,30.25,WNW,296,4.3,9.9,82,0.00,,,0.00,CWS Microserver 1.4,2013-02-16 05:55:00,